Terminal Aerodrome Forecast
Issued by NWS

Home | Current Version | Previous Version | Text Only | Print | Product List | Glossary On
Versions: 1 2 3 4 5 6 7 8 9 10 11 12 13 14 15 16
000
FTUS42 TJSJ 220500
TAFJSJ
TAF
TJSJ 220520Z 2206/2306 09005KT P6SM VCSH SCT022 BKN040
      TEMPO 2207/2211 VRB12KT -SHRA BKN025
     FM221300 07011KT P6SM -RA SCT025 SCT050 SCT100
     FM221800 06014KT P6SM VCTS FEW025CB BKN040
     FM222200 09010KT P6SM VCSH SCT030 SCT050 BKN100=

USA.gov is the U.S. government's official web portal to all federal, state and local government web resources and services.